sensor_id;sensor_type;location;lat;lon;timestamp;P1;durP1;ratioP1;P2;durP2;ratioP2
16171;SDS011;8192;53.596;10.166;2022-07-06T00:00:35;6.57;;;1.57;;
16171;SDS011;8192;53.596;10.166;2022-07-06T00:03:05;7.10;;;1.60;;
16171;SDS011;8192;53.596;10.166;2022-07-06T00:05:33;12.07;;;2.83;;
16171;SDS011;8192;53.596;10.166;2022-07-06T00:08:00;5.57;;;2.13;;
16171;SDS011;8192;53.596;10.166;2022-07-06T00:10:27;8.77;;;1.57;;
16171;SDS011;8192;53.596;10.166;2022-07-06T00:13:03;4.73;;;1.43;;
16171;SDS011;8192;53.596;10.166;2022-07-06T00:15:34;5.50;;;1.57;;
16171;SDS011;8192;53.596;10.166;2022-07-06T00:18:02;5.13;;;1.30;;
16171;SDS011;8192;53.596;10.166;2022-07-06T00:20:29;2.80;;;1.33;;
16171;SDS011;8192;53.596;10.166;2022-07-06T00:22:56;6.47;;;1.40;;
16171;SDS011;8192;53.596;10.166;2022-07-06T00:25:24;4.80;;;1.40;;
16171;SDS011;8192;53.596;10.166;2022-07-06T00:28:19;6.97;;;1.43;;
16171;SDS011;8192;53.596;10.166;2022-07-06T00:30:47;7.80;;;1.60;;
16171;SDS011;8192;53.596;10.166;2022-07-06T00:33:14;6.90;;;1.83;;
16171;SDS011;8192;53.596;10.166;2022-07-06T00:35:41;5.27;;;1.40;;
16171;SDS011;8192;53.596;10.166;2022-07-06T00:38:08;5.53;;;1.63;;
16171;SDS011;8192;53.596;10.166;2022-07-06T00:40:35;7.57;;;1.50;;
16171;SDS011;8192;53.596;10.166;2022-07-06T00:43:02;4.57;;;1.50;;
16171;SDS011;8192;53.596;10.166;2022-07-06T00:45:29;9.67;;;1.93;;
16171;SDS011;8192;53.596;10.166;2022-07-06T00:47:58;6.57;;;1.77;;
16171;SDS011;8192;53.596;10.166;2022-07-06T00:50:25;2.83;;;1.10;;
16171;SDS011;8192;53.596;10.166;2022-07-06T00:52:54;4.70;;;1.40;;
16171;SDS011;8192;53.596;10.166;2022-07-06T00:55:22;6.00;;;1.47;;
16171;SDS011;8192;53.596;10.166;2022-07-06T00:57:51;4.07;;;1.40;;
16171;SDS011;8192;53.596;10.166;2022-07-06T01:00:19;7.67;;;1.40;;
16171;SDS011;8192;53.596;10.166;2022-07-06T01:02:48;3.13;;;1.20;;
16171;SDS011;8192;53.596;10.166;2022-07-06T01:05:17;6.63;;;1.50;;
16171;SDS011;8192;53.596;10.166;2022-07-06T01:07:45;8.83;;;1.57;;
16171;SDS011;8192;53.596;10.166;2022-07-06T01:10:13;3.43;;;1.30;;
16171;SDS011;8192;53.596;10.166;2022-07-06T01:12:42;4.97;;;1.53;;
16171;SDS011;8192;53.596;10.166;2022-07-06T01:15:11;4.43;;;1.43;;
16171;SDS011;8192;53.596;10.166;2022-07-06T01:17:40;3.87;;;1.27;;
16171;SDS011;8192;53.596;10.166;2022-07-06T01:20:15;6.90;;;1.30;;
16171;SDS011;8192;53.596;10.166;2022-07-06T01:22:46;4.37;;;1.27;;
16171;SDS011;8192;53.596;10.166;2022-07-06T01:25:15;6.93;;;1.20;;
16171;SDS011;8192;53.596;10.166;2022-07-06T01:27:43;4.13;;;1.17;;
16171;SDS011;8192;53.596;10.166;2022-07-06T01:30:19;4.17;;;1.50;;
16171;SDS011;8192;53.596;10.166;2022-07-06T01:32:56;6.80;;;1.67;;
16171;SDS011;8192;53.596;10.166;2022-07-06T01:38:13;9.83;;;1.80;;
16171;SDS011;8192;53.596;10.166;2022-07-06T01:40:42;4.57;;;1.30;;
16171;SDS011;8192;53.596;10.166;2022-07-06T01:43:14;5.70;;;1.40;;
16171;SDS011;8192;53.596;10.166;2022-07-06T01:45:59;4.20;;;1.20;;
16171;SDS011;8192;53.596;10.166;2022-07-06T01:48:26;9.57;;;1.50;;
16171;SDS011;8192;53.596;10.166;2022-07-06T01:50:55;3.80;;;1.43;;
16171;SDS011;8192;53.596;10.166;2022-07-06T01:53:28;6.60;;;1.47;;
16171;SDS011;8192;53.596;10.166;2022-07-06T01:55:56;8.53;;;1.60;;
16171;SDS011;8192;53.596;10.166;2022-07-06T01:58:41;7.63;;;1.60;;
16171;SDS011;8192;53.596;10.166;2022-07-06T02:01:12;5.70;;;1.87;;
16171;SDS011;8192;53.596;10.166;2022-07-06T02:03:42;9.20;;;1.30;;
16171;SDS011;8192;53.596;10.166;2022-07-06T02:06:13;6.93;;;1.27;;
16171;SDS011;8192;53.596;10.166;2022-07-06T02:08:41;7.87;;;1.40;;
16171;SDS011;8192;53.596;10.166;2022-07-06T02:11:09;4.30;;;1.33;;
16171;SDS011;8192;53.596;10.166;2022-07-06T02:13:40;5.73;;;1.27;;
16171;SDS011;8192;53.596;10.166;2022-07-06T02:16:07;8.27;;;1.57;;
16171;SDS011;8192;53.596;10.166;2022-07-06T02:18:35;6.57;;;1.40;;
16171;SDS011;8192;53.596;10.166;2022-07-06T02:21:03;5.47;;;1.30;;
16171;SDS011;8192;53.596;10.166;2022-07-06T02:23:34;6.00;;;1.30;;
16171;SDS011;8192;53.596;10.166;2022-07-06T02:26:01;8.40;;;1.50;;
16171;SDS011;8192;53.596;10.166;2022-07-06T02:28:30;7.73;;;1.57;;
16171;SDS011;8192;53.596;10.166;2022-07-06T02:30:57;4.40;;;1.50;;
16171;SDS011;8192;53.596;10.166;2022-07-06T02:33:25;5.97;;;1.43;;
16171;SDS011;8192;53.596;10.166;2022-07-06T02:35:52;7.23;;;1.60;;
16171;SDS011;8192;53.596;10.166;2022-07-06T02:38:19;5.70;;;1.60;;
16171;SDS011;8192;53.596;10.166;2022-07-06T02:40:48;3.93;;;1.40;;
16171;SDS011;8192;53.596;10.166;2022-07-06T02:43:18;6.80;;;1.67;;
16171;SDS011;8192;53.596;10.166;2022-07-06T02:45:46;4.23;;;1.50;;
16171;SDS011;8192;53.596;10.166;2022-07-06T02:48:13;8.50;;;1.70;;
16171;SDS011;8192;53.596;10.166;2022-07-06T02:50:40;3.83;;;1.60;;
16171;SDS011;8192;53.596;10.166;2022-07-06T02:53:08;5.77;;;1.70;;
16171;SDS011;8192;53.596;10.166;2022-07-06T02:55:35;2.53;;;1.20;;
16171;SDS011;8192;53.596;10.166;2022-07-06T03:01:25;7.17;;;1.63;;
16171;SDS011;8192;53.596;10.166;2022-07-06T03:04:01;6.37;;;1.97;;
16171;SDS011;8192;53.596;10.166;2022-07-06T03:06:35;5.97;;;1.47;;
16171;SDS011;8192;53.596;10.166;2022-07-06T03:09:04;7.03;;;1.40;;
16171;SDS011;8192;53.596;10.166;2022-07-06T03:11:34;4.77;;;1.40;;
16171;SDS011;8192;53.596;10.166;2022-07-06T03:14:05;6.83;;;1.60;;
16171;SDS011;8192;53.596;10.166;2022-07-06T03:16:34;4.57;;;1.50;;
16171;SDS011;8192;53.596;10.166;2022-07-06T03:19:02;4.77;;;1.00;;
16171;SDS011;8192;53.596;10.166;2022-07-06T03:21:29;3.90;;;1.20;;
16171;SDS011;8192;53.596;10.166;2022-07-06T03:23:58;4.90;;;1.60;;
16171;SDS011;8192;53.596;10.166;2022-07-06T03:26:28;6.53;;;1.47;;
16171;SDS011;8192;53.596;10.166;2022-07-06T03:28:55;4.10;;;1.13;;
16171;SDS011;8192;53.596;10.166;2022-07-06T03:31:23;4.07;;;1.50;;
16171;SDS011;8192;53.596;10.166;2022-07-06T03:33:53;7.30;;;1.40;;
16171;SDS011;8192;53.596;10.166;2022-07-06T03:36:20;4.73;;;1.00;;
16171;SDS011;8192;53.596;10.166;2022-07-06T03:38:47;5.83;;;1.07;;
16171;SDS011;8192;53.596;10.166;2022-07-06T03:41:14;4.47;;;1.20;;
16171;SDS011;8192;53.596;10.166;2022-07-06T03:47:08;3.47;;;1.07;;
16171;SDS011;8192;53.596;10.166;2022-07-06T03:49:42;4.33;;;1.10;;
16171;SDS011;8192;53.596;10.166;2022-07-06T03:52:21;3.73;;;1.10;;
16171;SDS011;8192;53.596;10.166;2022-07-06T03:54:52;5.17;;;0.93;;
16171;SDS011;8192;53.596;10.166;2022-07-06T03:57:23;7.70;;;1.40;;
16171;SDS011;8192;53.596;10.166;2022-07-06T04:00:03;4.77;;;1.03;;
16171;SDS011;8192;53.596;10.166;2022-07-06T04:12:11;5.80;;;1.30;;
16171;SDS011;8192;53.596;10.166;2022-07-06T04:14:55;6.20;;;1.57;;
16171;SDS011;8192;53.596;10.166;2022-07-06T04:17:23;9.03;;;1.57;;
16171;SDS011;8192;53.596;10.166;2022-07-06T04:23:33;4.27;;;1.40;;
16171;SDS011;8192;53.596;10.166;2022-07-06T04:26:02;7.03;;;1.60;;
16171;SDS011;8192;53.596;10.166;2022-07-06T04:28:32;4.77;;;1.47;;
16171;SDS011;8192;53.596;10.166;2022-07-06T04:31:00;7.83;;;1.90;;
16171;SDS011;8192;53.596;10.166;2022-07-06T04:33:28;5.90;;;1.80;;
16171;SDS011;8192;53.596;10.166;2022-07-06T04:35:57;5.73;;;1.53;;
16171;SDS011;8192;53.596;10.166;2022-07-06T04:38:25;7.43;;;2.00;;
16171;SDS011;8192;53.596;10.166;2022-07-06T04:40:56;8.30;;;1.90;;
16171;SDS011;8192;53.596;10.166;2022-07-06T04:43:25;6.83;;;1.80;;
16171;SDS011;8192;53.596;10.166;2022-07-06T04:45:55;4.03;;;1.73;;
16171;SDS011;8192;53.596;10.166;2022-07-06T04:48:22;5.37;;;1.90;;
16171;SDS011;8192;53.596;10.166;2022-07-06T04:50:49;10.00;;;2.60;;
16171;SDS011;8192;53.596;10.166;2022-07-06T04:53:18;4.80;;;1.80;;
16171;SDS011;8192;53.596;10.166;2022-07-06T04:55:45;6.33;;;1.90;;
16171;SDS011;8192;53.596;10.166;2022-07-06T04:58:16;7.20;;;1.83;;
16171;SDS011;8192;53.596;10.166;2022-07-06T05:04:06;6.23;;;1.57;;
16171;SDS011;8192;53.596;10.166;2022-07-06T05:06:33;6.37;;;1.73;;
16171;SDS011;8192;53.596;10.166;2022-07-06T05:09:00;7.33;;;1.27;;
16171;SDS011;8192;53.596;10.166;2022-07-06T05:11:28;5.60;;;1.53;;
16171;SDS011;8192;53.596;10.166;2022-07-06T05:13:57;3.80;;;1.30;;
16171;SDS011;8192;53.596;10.166;2022-07-06T05:16:24;8.43;;;1.90;;
16171;SDS011;8192;53.596;10.166;2022-07-06T05:18:51;6.53;;;1.70;;
16171;SDS011;8192;53.596;10.166;2022-07-06T05:21:18;10.00;;;1.60;;
16171;SDS011;8192;53.596;10.166;2022-07-06T05:27:07;4.77;;;1.50;;
16171;SDS011;8192;53.596;10.166;2022-07-06T05:29:36;9.03;;;1.70;;
16171;SDS011;8192;53.596;10.166;2022-07-06T05:32:09;6.33;;;1.87;;
16171;SDS011;8192;53.596;10.166;2022-07-06T05:34:36;9.20;;;1.80;;
16171;SDS011;8192;53.596;10.166;2022-07-06T05:37:03;9.77;;;2.13;;
16171;SDS011;8192;53.596;10.166;2022-07-06T05:39:33;8.47;;;2.07;;
16171;SDS011;8192;53.596;10.166;2022-07-06T05:42:00;8.03;;;2.63;;
16171;SDS011;8192;53.596;10.166;2022-07-06T05:44:28;13.70;;;3.80;;
16171;SDS011;8192;53.596;10.166;2022-07-06T05:46:56;15.00;;;3.70;;
16171;SDS011;8192;53.596;10.166;2022-07-06T05:49:44;13.00;;;4.20;;
16171;SDS011;8192;53.596;10.166;2022-07-06T05:52:28;8.80;;;3.03;;
16171;SDS011;8192;53.596;10.166;2022-07-06T05:54:55;9.83;;;2.50;;
16171;SDS011;8192;53.596;10.166;2022-07-06T05:57:22;10.17;;;2.83;;
16171;SDS011;8192;53.596;10.166;2022-07-06T05:59:49;10.03;;;2.70;;
16171;SDS011;8192;53.596;10.166;2022-07-06T06:02:17;8.50;;;2.50;;
16171;SDS011;8192;53.596;10.166;2022-07-06T06:04:44;8.27;;;2.40;;
16171;SDS011;8192;53.596;10.166;2022-07-06T06:07:12;9.30;;;2.07;;
16171;SDS011;8192;53.596;10.166;2022-07-06T06:09:39;6.23;;;2.10;;
16171;SDS011;8192;53.596;10.166;2022-07-06T06:12:06;12.83;;;2.43;;
16171;SDS011;8192;53.596;10.166;2022-07-06T06:14:33;12.97;;;2.33;;
16171;SDS011;8192;53.596;10.166;2022-07-06T06:17:00;7.37;;;1.90;;
16171;SDS011;8192;53.596;10.166;2022-07-06T06:22:06;4.97;;;1.70;;
16171;SDS011;8192;53.596;10.166;2022-07-06T06:24:33;8.73;;;1.87;;
16171;SDS011;8192;53.596;10.166;2022-07-06T06:27:00;2.90;;;1.73;;
16171;SDS011;8192;53.596;10.166;2022-07-06T06:29:27;8.50;;;1.80;;
16171;SDS011;8192;53.596;10.166;2022-07-06T06:31:56;7.33;;;1.47;;
16171;SDS011;8192;53.596;10.166;2022-07-06T06:34:23;4.90;;;1.53;;
16171;SDS011;8192;53.596;10.166;2022-07-06T06:36:52;7.53;;;2.13;;
16171;SDS011;8192;53.596;10.166;2022-07-06T06:39:19;6.93;;;1.87;;
16171;SDS011;8192;53.596;10.166;2022-07-06T06:41:46;6.30;;;1.80;;
16171;SDS011;8192;53.596;10.166;2022-07-06T06:44:14;6.23;;;1.73;;
16171;SDS011;8192;53.596;10.166;2022-07-06T06:46:42;9.30;;;2.00;;
16171;SDS011;8192;53.596;10.166;2022-07-06T06:49:09;7.60;;;1.73;;
16171;SDS011;8192;53.596;10.166;2022-07-06T06:51:36;3.07;;;1.40;;
16171;SDS011;8192;53.596;10.166;2022-07-06T06:54:06;5.73;;;1.77;;
16171;SDS011;8192;53.596;10.166;2022-07-06T06:56:33;7.27;;;1.80;;
16171;SDS011;8192;53.596;10.166;2022-07-06T06:59:00;6.67;;;1.80;;
16171;SDS011;8192;53.596;10.166;2022-07-06T07:01:27;10.10;;;2.10;;
16171;SDS011;8192;53.596;10.166;2022-07-06T07:03:54;7.50;;;1.90;;
16171;SDS011;8192;53.596;10.166;2022-07-06T07:06:22;5.43;;;1.60;;
16171;SDS011;8192;53.596;10.166;2022-07-06T07:08:49;6.97;;;1.90;;
16171;SDS011;8192;53.596;10.166;2022-07-06T07:11:17;6.67;;;1.63;;
16171;SDS011;8192;53.596;10.166;2022-07-06T07:13:50;9.07;;;1.60;;
16171;SDS011;8192;53.596;10.166;2022-07-06T07:16:17;6.37;;;1.50;;
16171;SDS011;8192;53.596;10.166;2022-07-06T07:18:44;4.10;;;1.20;;
16171;SDS011;8192;53.596;10.166;2022-07-06T07:21:11;4.13;;;1.30;;
16171;SDS011;8192;53.596;10.166;2022-07-06T07:23:38;8.67;;;1.33;;
16171;SDS011;8192;53.596;10.166;2022-07-06T07:26:06;8.23;;;1.30;;
16171;SDS011;8192;53.596;10.166;2022-07-06T07:28:34;6.97;;;1.10;;
16171;SDS011;8192;53.596;10.166;2022-07-06T07:31:01;4.77;;;1.10;;
16171;SDS011;8192;53.596;10.166;2022-07-06T07:33:28;7.63;;;1.23;;
16171;SDS011;8192;53.596;10.166;2022-07-06T07:35:55;5.23;;;1.40;;
16171;SDS011;8192;53.596;10.166;2022-07-06T07:38:22;4.67;;;1.10;;
16171;SDS011;8192;53.596;10.166;2022-07-06T07:40:49;4.17;;;1.10;;
16171;SDS011;8192;53.596;10.166;2022-07-06T07:43:16;5.73;;;1.03;;
16171;SDS011;8192;53.596;10.166;2022-07-06T07:45:46;4.23;;;1.07;;
16171;SDS011;8192;53.596;10.166;2022-07-06T07:48:14;3.03;;;1.23;;
16171;SDS011;8192;53.596;10.166;2022-07-06T07:50:42;6.33;;;1.10;;
16171;SDS011;8192;53.596;10.166;2022-07-06T07:53:09;4.40;;;1.13;;
16171;SDS011;8192;53.596;10.166;2022-07-06T07:55:36;4.33;;;1.00;;
16171;SDS011;8192;53.596;10.166;2022-07-06T07:58:03;5.60;;;1.10;;
16171;SDS011;8192;53.596;10.166;2022-07-06T08:00:30;4.10;;;1.07;;
16171;SDS011;8192;53.596;10.166;2022-07-06T08:02:58;5.03;;;1.60;;
16171;SDS011;8192;53.596;10.166;2022-07-06T08:05:25;5.23;;;1.40;;
16171;SDS011;8192;53.596;10.166;2022-07-06T08:07:57;3.87;;;0.93;;
16171;SDS011;8192;53.596;10.166;2022-07-06T08:10:24;5.90;;;1.10;;
16171;SDS011;8192;53.596;10.166;2022-07-06T08:12:51;4.43;;;1.07;;
16171;SDS011;8192;53.596;10.166;2022-07-06T08:15:19;4.47;;;1.03;;
16171;SDS011;8192;53.596;10.166;2022-07-06T08:17:46;4.70;;;0.83;;
16171;SDS011;8192;53.596;10.166;2022-07-06T08:20:14;2.93;;;0.70;;
16171;SDS011;8192;53.596;10.166;2022-07-06T08:22:41;2.97;;;0.80;;
16171;SDS011;8192;53.596;10.166;2022-07-06T08:25:09;3.60;;;0.70;;
16171;SDS011;8192;53.596;10.166;2022-07-06T08:27:37;4.20;;;0.63;;
16171;SDS011;8192;53.596;10.166;2022-07-06T08:30:04;4.17;;;1.17;;
16171;SDS011;8192;53.596;10.166;2022-07-06T08:32:36;4.20;;;1.03;;
16171;SDS011;8192;53.596;10.166;2022-07-06T08:35:06;3.03;;;0.60;;
16171;SDS011;8192;53.596;10.166;2022-07-06T08:37:41;7.40;;;1.20;;
16171;SDS011;8192;53.596;10.166;2022-07-06T08:40:10;5.20;;;0.87;;
16171;SDS011;8192;53.596;10.166;2022-07-06T08:42:37;3.40;;;1.10;;
16171;SDS011;8192;53.596;10.166;2022-07-06T08:45:05;1.73;;;0.77;;
16171;SDS011;8192;53.596;10.166;2022-07-06T08:47:34;2.00;;;0.70;;
16171;SDS011;8192;53.596;10.166;2022-07-06T08:50:02;2.47;;;0.80;;
16171;SDS011;8192;53.596;10.166;2022-07-06T08:52:31;1.90;;;0.60;;
16171;SDS011;8192;53.596;10.166;2022-07-06T08:54:59;2.67;;;0.70;;
16171;SDS011;8192;53.596;10.166;2022-07-06T08:57:27;1.73;;;0.67;;
16171;SDS011;8192;53.596;10.166;2022-07-06T08:59:55;4.03;;;1.00;;
16171;SDS011;8192;53.596;10.166;2022-07-06T09:02:23;2.53;;;0.80;;
16171;SDS011;8192;53.596;10.166;2022-07-06T09:05:00;3.10;;;1.20;;
16171;SDS011;8192;53.596;10.166;2022-07-06T09:10:56;6.80;;;1.30;;
16171;SDS011;8192;53.596;10.166;2022-07-06T09:13:26;4.23;;;1.20;;
16171;SDS011;8192;53.596;10.166;2022-07-06T09:15:55;3.03;;;1.00;;
16171;SDS011;8192;53.596;10.166;2022-07-06T09:18:35;3.23;;;1.10;;
16171;SDS011;8192;53.596;10.166;2022-07-06T09:21:03;1.03;;;0.80;;
16171;SDS011;8192;53.596;10.166;2022-07-06T09:23:30;1.93;;;0.70;;
16171;SDS011;8192;53.596;10.166;2022-07-06T09:26:00;3.10;;;0.83;;
16171;SDS011;8192;53.596;10.166;2022-07-06T09:31:17;5.70;;;1.13;;
16171;SDS011;8192;53.596;10.166;2022-07-06T09:33:54;1.80;;;0.70;;
16171;SDS011;8192;53.596;10.166;2022-07-06T09:36:41;3.77;;;0.80;;
16171;SDS011;8192;53.596;10.166;2022-07-06T09:39:16;3.10;;;0.90;;
16171;SDS011;8192;53.596;10.166;2022-07-06T09:41:46;3.23;;;0.60;;
16171;SDS011;8192;53.596;10.166;2022-07-06T09:44:18;1.97;;;0.60;;
16171;SDS011;8192;53.596;10.166;2022-07-06T09:46:47;1.83;;;0.60;;
16171;SDS011;8192;53.596;10.166;2022-07-06T09:49:25;2.80;;;0.60;;
16171;SDS011;8192;53.596;10.166;2022-07-06T09:51:54;0.93;;;0.37;;
16171;SDS011;8192;53.596;10.166;2022-07-06T09:54:23;1.63;;;0.87;;
16171;SDS011;8192;53.596;10.166;2022-07-06T09:56:52;2.77;;;0.60;;
16171;SDS011;8192;53.596;10.166;2022-07-06T09:59:21;4.97;;;0.67;;
16171;SDS011;8192;53.596;10.166;2022-07-06T10:01:50;2.30;;;0.40;;
16171;SDS011;8192;53.596;10.166;2022-07-06T10:04:19;3.77;;;0.60;;
16171;SDS011;8192;53.596;10.166;2022-07-06T10:06:47;1.30;;;0.53;;
16171;SDS011;8192;53.596;10.166;2022-07-06T10:09:15;1.53;;;0.40;;
16171;SDS011;8192;53.596;10.166;2022-07-06T10:11:45;2.60;;;0.60;;
16171;SDS011;8192;53.596;10.166;2022-07-06T10:14:17;2.30;;;0.43;;
16171;SDS011;8192;53.596;10.166;2022-07-06T10:16:48;1.63;;;0.40;;
16171;SDS011;8192;53.596;10.166;2022-07-06T10:19:16;2.00;;;0.50;;
16171;SDS011;8192;53.596;10.166;2022-07-06T10:21:45;3.90;;;0.50;;
16171;SDS011;8192;53.596;10.166;2022-07-06T10:24:12;3.57;;;0.57;;
16171;SDS011;8192;53.596;10.166;2022-07-06T10:26:40;3.80;;;0.43;;
16171;SDS011;8192;53.596;10.166;2022-07-06T10:29:08;3.27;;;0.83;;
16171;SDS011;8192;53.596;10.166;2022-07-06T10:31:52;3.47;;;0.50;;
16171;SDS011;8192;53.596;10.166;2022-07-06T10:34:20;2.50;;;0.50;;
16171;SDS011;8192;53.596;10.166;2022-07-06T10:36:52;2.90;;;0.50;;
16171;SDS011;8192;53.596;10.166;2022-07-06T10:39:33;2.87;;;0.47;;
16171;SDS011;8192;53.596;10.166;2022-07-06T10:45:15;2.20;;;0.40;;
16171;SDS011;8192;53.596;10.166;2022-07-06T10:47:50;3.80;;;0.50;;
16171;SDS011;8192;53.596;10.166;2022-07-06T10:50:46;2.97;;;0.63;;
16171;SDS011;8192;53.596;10.166;2022-07-06T10:53:16;1.17;;;0.33;;
16171;SDS011;8192;53.596;10.166;2022-07-06T10:55:46;3.83;;;0.40;;
16171;SDS011;8192;53.596;10.166;2022-07-06T11:01:05;3.60;;;0.23;;
16171;SDS011;8192;53.596;10.166;2022-07-06T11:03:47;3.70;;;0.47;;
16171;SDS011;8192;53.596;10.166;2022-07-06T11:06:15;2.63;;;0.40;;
16171;SDS011;8192;53.596;10.166;2022-07-06T11:08:47;3.47;;;0.50;;
16171;SDS011;8192;53.596;10.166;2022-07-06T11:11:16;1.20;;;0.37;;
16171;SDS011;8192;53.596;10.166;2022-07-06T11:13:47;3.00;;;0.50;;
16171;SDS011;8192;53.596;10.166;2022-07-06T11:16:17;3.90;;;1.17;;
16171;SDS011;8192;53.596;10.166;2022-07-06T11:18:47;3.47;;;0.70;;
16171;SDS011;8192;53.596;10.166;2022-07-06T11:21:19;2.83;;;0.40;;
16171;SDS011;8192;53.596;10.166;2022-07-06T11:23:48;3.60;;;1.10;;
16171;SDS011;8192;53.596;10.166;2022-07-06T11:26:30;5.20;;;0.60;;
16171;SDS011;8192;53.596;10.166;2022-07-06T11:29:02;4.63;;;0.53;;
16171;SDS011;8192;53.596;10.166;2022-07-06T11:31:43;3.90;;;0.60;;
16171;SDS011;8192;53.596;10.166;2022-07-06T11:34:17;3.03;;;0.70;;
16171;SDS011;8192;53.596;10.166;2022-07-06T11:36:56;7.40;;;1.10;;
16171;SDS011;8192;53.596;10.166;2022-07-06T11:42:52;3.93;;;1.20;;
16171;SDS011;8192;53.596;10.166;2022-07-06T11:45:27;2.47;;;0.80;;
16171;SDS011;8192;53.596;10.166;2022-07-06T11:48:09;3.07;;;0.50;;
16171;SDS011;8192;53.596;10.166;2022-07-06T11:50:38;3.83;;;0.93;;
16171;SDS011;8192;53.596;10.166;2022-07-06T11:53:06;3.13;;;0.73;;
16171;SDS011;8192;53.596;10.166;2022-07-06T11:55:33;5.03;;;0.83;;
16171;SDS011;8192;53.596;10.166;2022-07-06T11:58:05;3.90;;;0.63;;
16171;SDS011;8192;53.596;10.166;2022-07-06T12:01:10;2.97;;;0.90;;
16171;SDS011;8192;53.596;10.166;2022-07-06T12:03:56;4.20;;;0.80;;
16171;SDS011;8192;53.596;10.166;2022-07-06T12:06:26;6.80;;;0.67;;
16171;SDS011;8192;53.596;10.166;2022-07-06T12:08:56;4.50;;;1.00;;
16171;SDS011;8192;53.596;10.166;2022-07-06T12:11:29;4.73;;;0.77;;
16171;SDS011;8192;53.596;10.166;2022-07-06T12:13:57;4.40;;;0.60;;
16171;SDS011;8192;53.596;10.166;2022-07-06T12:16:30;2.73;;;0.60;;
16171;SDS011;8192;53.596;10.166;2022-07-06T12:19:00;2.43;;;0.50;;
16171;SDS011;8192;53.596;10.166;2022-07-06T12:21:29;2.97;;;0.70;;
16171;SDS011;8192;53.596;10.166;2022-07-06T12:23:58;3.93;;;0.50;;
16171;SDS011;8192;53.596;10.166;2022-07-06T12:29:48;1.63;;;0.80;;
16171;SDS011;8192;53.596;10.166;2022-07-06T12:32:20;2.70;;;0.60;;
16171;SDS011;8192;53.596;10.166;2022-07-06T12:35:01;3.27;;;0.60;;
16171;SDS011;8192;53.596;10.166;2022-07-06T12:37:32;2.90;;;0.57;;
16171;SDS011;8192;53.596;10.166;2022-07-06T12:39:59;3.60;;;0.40;;
16171;SDS011;8192;53.596;10.166;2022-07-06T12:42:27;4.00;;;0.50;;
16171;SDS011;8192;53.596;10.166;2022-07-06T12:44:54;3.10;;;0.70;;
16171;SDS011;8192;53.596;10.166;2022-07-06T12:47:22;1.27;;;0.50;;
16171;SDS011;8192;53.596;10.166;2022-07-06T12:50:03;0.97;;;0.47;;
16171;SDS011;8192;53.596;10.166;2022-07-06T12:52:35;2.93;;;0.53;;
16171;SDS011;8192;53.596;10.166;2022-07-06T12:55:04;3.80;;;0.93;;
16171;SDS011;8192;53.596;10.166;2022-07-06T12:57:44;1.63;;;0.47;;
16171;SDS011;8192;53.596;10.166;2022-07-06T13:00:13;3.17;;;0.70;;
16171;SDS011;8192;53.596;10.166;2022-07-06T13:03:06;2.90;;;0.50;;
16171;SDS011;8192;53.596;10.166;2022-07-06T13:05:34;2.93;;;0.60;;
16171;SDS011;8192;53.596;10.166;2022-07-06T13:08:05;2.53;;;0.50;;
16171;SDS011;8192;53.596;10.166;2022-07-06T13:10:59;2.93;;;0.33;;
16171;SDS011;8192;53.596;10.166;2022-07-06T13:13:29;2.00;;;0.40;;
16171;SDS011;8192;53.596;10.166;2022-07-06T13:16:11;2.00;;;0.40;;
16171;SDS011;8192;53.596;10.166;2022-07-06T13:18:58;2.57;;;0.70;;
16171;SDS011;8192;53.596;10.166;2022-07-06T13:21:29;3.33;;;0.50;;
16171;SDS011;8192;53.596;10.166;2022-07-06T13:23:58;4.17;;;0.40;;
16171;SDS011;8192;53.596;10.166;2022-07-06T13:26:26;1.37;;;0.37;;
16171;SDS011;8192;53.596;10.166;2022-07-06T13:28:53;3.93;;;0.60;;
16171;SDS011;8192;53.596;10.166;2022-07-06T13:31:20;2.63;;;0.40;;
16171;SDS011;8192;53.596;10.166;2022-07-06T13:33:47;3.90;;;0.60;;
16171;SDS011;8192;53.596;10.166;2022-07-06T13:36:16;3.23;;;0.60;;
16171;SDS011;8192;53.596;10.166;2022-07-06T13:38:44;3.33;;;0.40;;
16171;SDS011;8192;53.596;10.166;2022-07-06T13:41:13;3.73;;;0.40;;
16171;SDS011;8192;53.596;10.166;2022-07-06T13:43:43;3.07;;;0.50;;
16171;SDS011;8192;53.596;10.166;2022-07-06T13:46:16;2.00;;;0.30;;
16171;SDS011;8192;53.596;10.166;2022-07-06T13:48:54;0.67;;;0.30;;
16171;SDS011;8192;53.596;10.166;2022-07-06T13:51:22;3.77;;;0.63;;
16171;SDS011;8192;53.596;10.166;2022-07-06T13:53:51;2.03;;;0.47;;
16171;SDS011;8192;53.596;10.166;2022-07-06T13:56:22;2.20;;;0.40;;
16171;SDS011;8192;53.596;10.166;2022-07-06T13:58:49;1.50;;;0.60;;
16171;SDS011;8192;53.596;10.166;2022-07-06T14:04:40;2.50;;;0.33;;
16171;SDS011;8192;53.596;10.166;2022-07-06T14:07:15;1.30;;;0.20;;
16171;SDS011;8192;53.596;10.166;2022-07-06T14:09:44;0.97;;;0.30;;
16171;SDS011;8192;53.596;10.166;2022-07-06T14:12:18;1.30;;;0.30;;
16171;SDS011;8192;53.596;10.166;2022-07-06T14:18:15;4.27;;;0.43;;
16171;SDS011;8192;53.596;10.166;2022-07-06T14:20:43;1.97;;;0.47;;
16171;SDS011;8192;53.596;10.166;2022-07-06T14:23:11;3.23;;;0.60;;
16171;SDS011;8192;53.596;10.166;2022-07-06T14:25:59;4.47;;;0.40;;
16171;SDS011;8192;53.596;10.166;2022-07-06T14:31:19;1.77;;;0.40;;
16171;SDS011;8192;53.596;10.166;2022-07-06T14:33:58;1.40;;;0.40;;
16171;SDS011;8192;53.596;10.166;2022-07-06T14:36:26;2.30;;;0.50;;
16171;SDS011;8192;53.596;10.166;2022-07-06T14:41:48;1.63;;;0.30;;
16171;SDS011;8192;53.596;10.166;2022-07-06T14:44:55;2.10;;;0.27;;
16171;SDS011;8192;53.596;10.166;2022-07-06T14:47:24;3.20;;;0.20;;
16171;SDS011;8192;53.596;10.166;2022-07-06T14:49:52;1.27;;;0.40;;
16171;SDS011;8192;53.596;10.166;2022-07-06T14:52:19;1.30;;;0.33;;
16171;SDS011;8192;53.596;10.166;2022-07-06T14:54:47;2.28;;;0.45;;
16171;SDS011;8192;53.596;10.166;2022-07-06T14:57:18;4.73;;;0.77;;
16171;SDS011;8192;53.596;10.166;2022-07-06T14:59:45;2.83;;;0.40;;
16171;SDS011;8192;53.596;10.166;2022-07-06T15:02:16;1.60;;;0.40;;
16171;SDS011;8192;53.596;10.166;2022-07-06T15:04:44;3.67;;;0.43;;
16171;SDS011;8192;53.596;10.166;2022-07-06T15:07:12;2.83;;;0.33;;
16171;SDS011;8192;53.596;10.166;2022-07-06T15:09:40;2.27;;;0.40;;
16171;SDS011;8192;53.596;10.166;2022-07-06T15:12:09;2.23;;;0.47;;
16171;SDS011;8192;53.596;10.166;2022-07-06T15:14:36;2.47;;;0.40;;
16171;SDS011;8192;53.596;10.166;2022-07-06T15:17:19;1.00;;;0.37;;
16171;SDS011;8192;53.596;10.166;2022-07-06T15:19:47;4.30;;;0.50;;
16171;SDS011;8192;53.596;10.166;2022-07-06T15:22:14;2.77;;;0.47;;
16171;SDS011;8192;53.596;10.166;2022-07-06T15:24:42;1.43;;;0.40;;
16171;SDS011;8192;53.596;10.166;2022-07-06T15:27:10;1.43;;;0.47;;
16171;SDS011;8192;53.596;10.166;2022-07-06T15:29:38;2.00;;;0.30;;
16171;SDS011;8192;53.596;10.166;2022-07-06T15:32:06;3.83;;;0.40;;
16171;SDS011;8192;53.596;10.166;2022-07-06T15:34:35;2.23;;;0.40;;
16171;SDS011;8192;53.596;10.166;2022-07-06T15:40:20;4.37;;;0.77;;
16171;SDS011;8192;53.596;10.166;2022-07-06T15:45:37;6.80;;;0.87;;
16171;SDS011;8192;53.596;10.166;2022-07-06T15:48:08;4.27;;;0.80;;
16171;SDS011;8192;53.596;10.166;2022-07-06T15:50:42;4.80;;;0.73;;
16171;SDS011;8192;53.596;10.166;2022-07-06T15:53:10;6.13;;;1.00;;
16171;SDS011;8192;53.596;10.166;2022-07-06T15:59:01;3.33;;;0.70;;
16171;SDS011;8192;53.596;10.166;2022-07-06T16:04:29;5.70;;;1.20;;
16171;SDS011;8192;53.596;10.166;2022-07-06T16:07:02;3.37;;;0.80;;
16171;SDS011;8192;53.596;10.166;2022-07-06T16:09:30;6.27;;;0.80;;
16171;SDS011;8192;53.596;10.166;2022-07-06T16:12:00;4.70;;;0.83;;
16171;SDS011;8192;53.596;10.166;2022-07-06T16:14:28;3.50;;;0.87;;
16171;SDS011;8192;53.596;10.166;2022-07-06T16:20:09;3.40;;;0.70;;
16171;SDS011;8192;53.596;10.166;2022-07-06T16:29:13;4.97;;;0.80;;
16171;SDS011;8192;53.596;10.166;2022-07-06T16:31:40;3.63;;;0.87;;